createdAt,value
2023-11-15T00:00:19.384Z,1.30
2023-11-15T00:02:47.722Z,0.90
2023-11-15T00:05:15.844Z,1.27
2023-11-15T00:07:45.225Z,0.70
2023-11-15T00:10:14.637Z,1.30
2023-11-15T00:12:43.268Z,0.60
2023-11-15T00:15:15.513Z,0.97
2023-11-15T00:17:43.823Z,0.70
2023-11-15T00:20:14.504Z,0.70
2023-11-15T00:22:43.054Z,0.57
2023-11-15T00:25:11.245Z,0.63
2023-11-15T00:27:39.489Z,0.70
2023-11-15T00:30:11.839Z,0.90
2023-11-15T00:32:41.463Z,0.70
2023-11-15T00:35:13.649Z,0.90
2023-11-15T00:37:43.339Z,1.33
2023-11-15T00:40:14.734Z,1.10
2023-11-15T00:42:43.033Z,0.90
2023-11-15T00:45:13.328Z,0.87
2023-11-15T00:47:43.117Z,0.90
2023-11-15T00:50:11.708Z,1.73
2023-11-15T00:52:39.957Z,1.63
2023-11-15T00:55:09.577Z,1.33
2023-11-15T00:57:37.646Z,0.90
2023-11-15T01:00:23.005Z,1.10
2023-11-15T01:02:55.753Z,0.90
2023-11-15T01:05:24.218Z,1.37
2023-11-15T01:07:52.325Z,1.30
2023-11-15T01:10:21.800Z,0.60
2023-11-15T01:12:50.076Z,0.80
2023-11-15T01:15:20.040Z,0.50
2023-11-15T01:17:48.289Z,1.00
2023-11-15T01:20:18.183Z,0.90
2023-11-15T01:22:46.717Z,0.87
2023-11-15T01:25:15.617Z,1.03
2023-11-15T01:27:43.922Z,0.80
2023-11-15T01:30:13.216Z,0.90
2023-11-15T01:32:41.387Z,1.00
2023-11-15T01:35:10.340Z,0.90
2023-11-15T01:37:39.774Z,0.97
2023-11-15T01:40:12.486Z,1.27
2023-11-15T01:42:41.756Z,1.00
2023-11-15T01:45:11.042Z,1.37
2023-11-15T01:47:39.719Z,1.43
2023-11-15T01:50:11.705Z,0.97
2023-11-15T01:52:43.038Z,0.97
2023-11-15T01:55:15.118Z,1.20
2023-11-15T01:57:43.556Z,1.00
2023-11-15T02:00:13.561Z,1.13
2023-11-15T02:02:43.217Z,0.97
2023-11-15T02:05:11.967Z,1.17
2023-11-15T02:07:42.977Z,0.90
2023-11-15T02:10:13.484Z,1.47
2023-11-15T02:12:41.578Z,0.90
2023-11-15T02:15:10.560Z,1.10
2023-11-15T02:17:38.706Z,1.00
2023-11-15T02:20:10.040Z,0.97
2023-11-15T02:22:47.036Z,1.17
2023-11-15T02:25:17.579Z,1.10
2023-11-15T02:27:46.279Z,0.90
2023-11-15T02:30:15.744Z,0.80
2023-11-15T02:32:45.103Z,0.93
2023-11-15T02:35:13.211Z,1.10
2023-11-15T02:37:41.661Z,0.80
2023-11-15T02:40:11.955Z,0.80
2023-11-15T02:42:41.567Z,1.20
2023-11-15T02:45:11.295Z,1.13
2023-11-15T02:47:39.654Z,1.70
2023-11-15T02:50:09.234Z,0.93
2023-11-15T02:52:37.887Z,1.10
2023-11-15T02:55:06.985Z,1.30
2023-11-15T02:57:35.066Z,0.90
2023-11-15T03:00:06.832Z,1.23
2023-11-15T03:02:35.395Z,1.50
2023-11-15T03:05:03.788Z,0.90
2023-11-15T03:07:31.834Z,1.27
2023-11-15T03:10:00.167Z,1.13
2023-11-15T03:12:28.342Z,0.90
2023-11-15T03:14:57.222Z,0.87
2023-11-15T03:17:27.173Z,0.73
2023-11-15T03:19:56.192Z,1.20
2023-11-15T03:22:24.376Z,0.77
2023-11-15T03:24:52.522Z,1.20
2023-11-15T03:27:20.647Z,1.20
2023-11-15T03:29:48.826Z,1.10
2023-11-15T03:32:16.895Z,1.37
2023-11-15T03:34:46.397Z,1.00
2023-11-15T03:37:15.708Z,1.30
2023-11-15T03:39:43.786Z,1.30
2023-11-15T03:42:13.376Z,1.23
2023-11-15T03:44:41.534Z,0.70
2023-11-15T03:47:09.754Z,0.83
2023-11-15T03:49:37.853Z,2.20
2023-11-15T03:52:08.636Z,0.90
2023-11-15T03:54:37.361Z,0.90
2023-11-15T03:57:08.935Z,0.83
2023-11-15T03:59:37.340Z,0.93
2023-11-15T04:02:05.471Z,0.83
2023-11-15T04:04:34.721Z,1.00
2023-11-15T04:07:04.180Z,1.20
2023-11-15T04:09:34.875Z,1.13
2023-11-15T04:12:03.526Z,1.37
2023-11-15T04:14:31.608Z,1.20
2023-11-15T04:17:01.323Z,0.70
2023-11-15T04:19:29.337Z,1.10
2023-11-15T04:22:06.038Z,0.80
2023-11-15T04:24:41.731Z,0.93
2023-11-15T04:27:09.914Z,1.10
2023-11-15T04:29:39.090Z,1.33
2023-11-15T04:32:07.804Z,1.27
2023-11-15T04:34:36.035Z,1.00
2023-11-15T04:37:05.058Z,1.40
2023-11-15T04:39:33.326Z,1.10
2023-11-15T04:42:03.105Z,1.00
2023-11-15T04:44:31.933Z,1.10
2023-11-15T04:47:00.097Z,1.00
2023-11-15T04:49:28.076Z,0.97
2023-11-15T04:51:56.094Z,1.17
2023-11-15T04:54:24.112Z,1.00
2023-11-15T04:56:52.476Z,1.40
2023-11-15T04:59:22.188Z,1.40
2023-11-15T05:01:50.257Z,1.10
2023-11-15T05:04:18.641Z,1.50
2023-11-15T05:06:47.874Z,1.40
2023-11-15T05:09:15.868Z,0.90
2023-11-15T05:11:43.867Z,1.70
2023-11-15T05:14:11.881Z,1.37
2023-11-15T05:16:41.459Z,1.53
2023-11-15T05:19:09.493Z,1.33
2023-11-15T05:21:38.429Z,1.40
2023-11-15T05:24:07.695Z,1.33
2023-11-15T05:26:35.780Z,1.50
2023-11-15T05:29:03.821Z,1.30
2023-11-15T05:31:31.770Z,1.30
2023-11-15T05:34:01.046Z,1.30
2023-11-15T05:36:29.253Z,1.77
2023-11-15T05:38:57.514Z,1.50
2023-11-15T05:41:28.550Z,1.60
2023-11-15T05:43:57.949Z,1.27
2023-11-15T05:46:26.771Z,1.70
2023-11-15T05:48:55.036Z,1.50
2023-11-15T05:51:24.789Z,1.90
2023-11-15T05:53:52.760Z,1.77
2023-11-15T05:56:23.053Z,1.83
2023-11-15T05:58:51.411Z,2.00
2023-11-15T06:01:19.724Z,1.57
2023-11-15T06:03:49.564Z,1.67
2023-11-15T06:06:17.618Z,1.60
2023-11-15T06:08:47.053Z,1.80
2023-11-15T06:11:15.144Z,1.47
2023-11-15T06:13:43.861Z,2.03
2023-11-15T06:16:11.817Z,1.23
2023-11-15T06:18:40.680Z,2.00
2023-11-15T06:21:08.870Z,1.60
2023-11-15T06:23:36.916Z,1.57
2023-11-15T06:26:07.703Z,1.77
2023-11-15T06:28:36.669Z,2.00
2023-11-15T06:31:05.802Z,1.73
2023-11-15T06:33:34.060Z,1.80
2023-11-15T06:36:03.578Z,1.87
2023-11-15T06:38:31.959Z,1.47
2023-11-15T06:41:01.529Z,1.57
2023-11-15T06:43:31.033Z,1.60
2023-11-15T06:45:59.362Z,1.57
2023-11-15T06:48:27.935Z,2.20
2023-11-15T06:50:56.486Z,1.30
2023-11-15T06:53:24.737Z,1.63
2023-11-15T06:55:54.003Z,2.00
2023-11-15T06:58:22.455Z,1.40
2023-11-15T07:00:51.914Z,1.73
2023-11-15T07:03:20.154Z,1.37
2023-11-15T07:05:50.355Z,1.60
2023-11-15T07:08:18.545Z,2.50
2023-11-15T07:10:47.263Z,1.90
2023-11-15T07:13:15.473Z,2.00
2023-11-15T07:15:44.882Z,2.30
2023-11-15T07:18:15.099Z,1.43
2023-11-15T07:20:43.495Z,2.33
2023-11-15T07:23:13.187Z,1.50
2023-11-15T07:25:41.316Z,2.30
2023-11-15T07:28:11.081Z,1.60
2023-11-15T07:30:39.370Z,1.80
2023-11-15T07:33:07.511Z,1.50
2023-11-15T07:35:37.997Z,2.30
2023-11-15T07:38:09.183Z,2.37
2023-11-15T07:40:38.767Z,2.03
2023-11-15T07:43:07.925Z,2.70
2023-11-15T07:45:36.952Z,1.83
2023-11-15T07:48:06.306Z,2.37
2023-11-15T07:50:36.992Z,1.73
2023-11-15T07:53:05.496Z,1.57
2023-11-15T07:55:36.800Z,1.60
2023-11-15T07:58:05.556Z,1.63
2023-11-15T08:00:36.614Z,1.70
2023-11-15T08:03:05.776Z,1.53
2023-11-15T08:05:34.202Z,2.07
2023-11-15T08:08:04.943Z,1.50
2023-11-15T08:10:33.910Z,2.93
2023-11-15T08:13:02.090Z,1.80
2023-11-15T08:15:30.118Z,1.63
2023-11-15T08:17:58.336Z,1.77
2023-11-15T08:20:26.510Z,1.37
2023-11-15T08:22:54.509Z,1.47
2023-11-15T08:25:25.900Z,1.70
2023-11-15T08:27:54.035Z,1.20
2023-11-15T08:30:22.527Z,1.47
2023-11-15T08:32:50.716Z,1.57
2023-11-15T08:35:19.028Z,2.20
2023-11-15T08:37:47.120Z,1.77
2023-11-15T08:40:26.113Z,1.60
2023-11-15T08:42:58.654Z,2.27
2023-11-15T08:45:27.014Z,2.57
2023-11-15T08:47:58.610Z,2.23
2023-11-15T08:50:28.292Z,1.97
2023-11-15T08:52:57.805Z,1.97
2023-11-15T08:55:26.013Z,1.50
2023-11-15T08:57:54.354Z,1.80
2023-11-15T09:00:25.584Z,1.50
2023-11-15T09:02:53.912Z,1.63
2023-11-15T09:05:24.379Z,2.73
2023-11-15T09:07:52.571Z,1.80
2023-11-15T09:10:23.935Z,1.57
2023-11-15T09:12:53.741Z,2.40
2023-11-15T09:15:25.480Z,1.90
2023-11-15T09:17:53.636Z,1.80
2023-11-15T09:20:27.891Z,2.30
2023-11-15T09:22:56.681Z,2.77
2023-11-15T09:25:26.389Z,3.20
2023-11-15T09:27:56.695Z,3.20
2023-11-15T09:30:27.246Z,2.67
2023-11-15T09:32:56.181Z,2.53
2023-11-15T09:35:29.275Z,2.73
2023-11-15T09:37:58.793Z,2.80
2023-11-15T09:40:28.658Z,3.10
2023-11-15T09:43:00.110Z,3.77
2023-11-15T09:45:33.541Z,4.30
2023-11-15T09:48:03.583Z,3.20
2023-11-15T09:50:35.041Z,2.77
2023-11-15T09:53:07.046Z,2.83
2023-11-15T09:55:36.257Z,4.70
2023-11-15T09:58:05.074Z,3.70
2023-11-15T10:00:34.636Z,2.47
2023-11-15T10:03:02.991Z,2.17
2023-11-15T10:05:33.627Z,1.73
2023-11-15T10:08:12.309Z,1.90
2023-11-15T10:10:43.182Z,1.30
2023-11-15T10:13:15.112Z,1.53
2023-11-15T10:15:46.780Z,1.23
2023-11-15T10:18:16.594Z,1.60
2023-11-15T10:20:45.204Z,1.80
2023-11-15T10:23:14.562Z,2.40
2023-11-15T10:25:49.167Z,1.40
2023-11-15T10:28:18.019Z,1.37
2023-11-15T10:30:50.216Z,1.60
2023-11-15T10:33:19.708Z,2.43
2023-11-15T10:35:48.890Z,1.47
2023-11-15T10:38:21.047Z,1.83
2023-11-15T10:40:53.570Z,1.80
2023-11-15T10:43:21.970Z,1.50
2023-11-15T10:45:57.155Z,1.43
2023-11-15T10:48:27.912Z,1.83
2023-11-15T10:50:59.056Z,2.37
2023-11-15T10:53:29.346Z,1.70
2023-11-15T10:55:59.877Z,1.80
2023-11-15T10:58:28.889Z,2.03
2023-11-15T11:00:59.483Z,1.90
2023-11-15T11:03:29.590Z,2.23
2023-11-15T11:06:05.620Z,2.10
2023-11-15T11:08:42.677Z,2.90
2023-11-15T11:11:22.305Z,2.10
2023-11-15T11:14:18.626Z,2.57
2023-11-15T11:16:48.592Z,2.37
2023-11-15T11:19:22.904Z,1.87
2023-11-15T11:22:10.362Z,1.80
2023-11-15T11:24:43.566Z,1.80
2023-11-15T11:27:32.039Z,2.40
2023-11-15T11:30:22.416Z,1.83
2023-11-15T11:33:11.026Z,2.07
2023-11-15T11:35:41.952Z,1.90
2023-11-15T11:38:15.580Z,1.63
2023-11-15T11:40:46.994Z,1.30
2023-11-15T11:43:16.981Z,1.50
2023-11-15T11:45:46.642Z,2.47
2023-11-15T11:48:20.762Z,2.80
2023-11-15T11:50:57.582Z,1.60
2023-11-15T11:53:26.154Z,1.70
2023-11-15T11:55:56.094Z,1.83
2023-11-15T11:58:27.193Z,1.57
2023-11-15T12:01:03.118Z,2.10
2023-11-15T12:03:33.133Z,1.87
2023-11-15T12:06:09.819Z,1.67
2023-11-15T12:08:39.919Z,1.80
2023-11-15T12:11:09.147Z,1.67
2023-11-15T12:13:44.117Z,1.50
2023-11-15T12:16:20.353Z,2.43
2023-11-15T12:19:13.791Z,2.00
2023-11-15T12:21:46.760Z,2.00
2023-11-15T12:24:18.648Z,1.50
2023-11-15T12:26:48.346Z,1.40
2023-11-15T12:29:21.625Z,1.73
2023-11-15T12:31:52.016Z,1.87
2023-11-15T12:34:22.532Z,1.53
2023-11-15T12:36:52.636Z,2.00
2023-11-15T12:39:23.574Z,1.60
2023-11-15T12:41:53.731Z,2.63
2023-11-15T12:44:22.713Z,1.57
2023-11-15T12:46:55.414Z,1.43
2023-11-15T12:49:28.770Z,1.60
2023-11-15T12:51:57.013Z,1.37
2023-11-15T12:54:24.973Z,1.10
2023-11-15T12:57:08.925Z,1.57
2023-11-15T12:59:38.878Z,1.47
2023-11-15T13:02:07.803Z,0.90
2023-11-15T13:04:52.048Z,1.20
2023-11-15T13:07:20.275Z,1.40
2023-11-15T13:09:49.370Z,1.07
2023-11-15T13:12:25.428Z,1.33
2023-11-15T13:14:54.247Z,1.03
2023-11-15T13:17:22.427Z,1.80
2023-11-15T13:19:51.808Z,1.33
2023-11-15T13:22:19.841Z,1.10
2023-11-15T13:24:50.897Z,1.00
2023-11-15T13:27:21.697Z,1.37
2023-11-15T13:29:51.446Z,1.20
2023-11-15T13:32:20.537Z,1.97
2023-11-15T13:34:51.601Z,1.23
2023-11-15T13:37:20.990Z,1.30
2023-11-15T13:39:49.188Z,1.20
2023-11-15T13:42:17.248Z,0.80
2023-11-15T13:44:46.092Z,1.23
2023-11-15T13:47:15.162Z,2.00
2023-11-15T13:49:47.567Z,1.33
2023-11-15T13:52:17.076Z,1.33
2023-11-15T13:54:47.554Z,0.97
2023-11-15T13:57:18.718Z,1.03
2023-11-15T13:59:46.954Z,1.00
2023-11-15T14:02:15.086Z,0.67
2023-11-15T14:04:43.671Z,1.20
2023-11-15T14:07:12.145Z,1.00
2023-11-15T14:09:41.048Z,1.00
2023-11-15T14:12:12.307Z,1.20
2023-11-15T14:14:41.130Z,1.37
2023-11-15T14:17:11.192Z,1.90
2023-11-15T14:19:41.010Z,1.43
2023-11-15T14:22:09.036Z,1.17
2023-11-15T14:24:37.339Z,1.47
2023-11-15T14:27:06.282Z,1.10
2023-11-15T14:29:36.833Z,1.10
2023-11-15T14:32:08.530Z,1.50
2023-11-15T14:34:36.883Z,1.30
2023-11-15T14:37:05.128Z,1.00
2023-11-15T14:39:33.164Z,1.60
2023-11-15T14:42:01.352Z,1.50
2023-11-15T14:44:29.856Z,1.03
2023-11-15T14:47:00.338Z,1.00
2023-11-15T14:49:29.398Z,1.30
2023-11-15T14:52:11.896Z,1.17
2023-11-15T14:54:46.873Z,1.60
2023-11-15T14:57:15.624Z,1.00
2023-11-15T14:59:44.807Z,1.30
2023-11-15T15:02:14.666Z,1.40
2023-11-15T15:04:45.736Z,1.43
2023-11-15T15:07:15.756Z,2.87
2023-11-15T15:09:44.125Z,5.70
2023-11-15T15:12:12.577Z,3.50
2023-11-15T15:14:40.807Z,1.20
2023-11-15T15:17:18.145Z,1.53
2023-11-15T15:19:52.882Z,2.90
2023-11-15T15:22:20.864Z,2.33
2023-11-15T15:24:50.191Z,1.30
2023-11-15T15:27:18.188Z,1.70
2023-11-15T15:29:49.865Z,1.47
2023-11-15T15:32:18.034Z,2.37
2023-11-15T15:34:45.987Z,1.80
2023-11-15T15:37:16.390Z,1.17
2023-11-15T15:39:44.556Z,1.33
2023-11-15T15:42:13.018Z,1.53
2023-11-15T15:44:41.151Z,1.60
2023-11-15T15:47:09.395Z,1.30
2023-11-15T15:49:42.578Z,1.97
2023-11-15T15:52:12.784Z,1.73
2023-11-15T15:54:42.439Z,1.57
2023-11-15T15:57:10.610Z,2.07
2023-11-15T15:59:39.477Z,2.17
2023-11-15T16:02:08.029Z,2.00
2023-11-15T16:04:37.472Z,5.03
2023-11-15T16:07:06.756Z,2.27
2023-11-15T16:09:35.003Z,1.40
2023-11-15T16:12:04.895Z,1.93
2023-11-15T16:14:32.950Z,1.40
2023-11-15T16:17:00.981Z,1.53
2023-11-15T16:19:29.182Z,1.20
2023-11-15T16:21:57.516Z,1.37
2023-11-15T16:24:25.753Z,1.20
2023-11-15T16:26:54.884Z,1.57
2023-11-15T16:29:24.316Z,1.73
2023-11-15T16:31:52.309Z,1.27
2023-11-15T16:34:20.281Z,1.70
2023-11-15T16:36:48.414Z,2.30
2023-11-15T16:39:21.608Z,2.40
2023-11-15T16:41:51.662Z,2.83
2023-11-15T16:44:20.792Z,2.20
2023-11-15T16:46:50.862Z,2.33
2023-11-15T16:49:19.649Z,1.73
2023-11-15T16:51:47.763Z,2.03
2023-11-15T16:54:16.361Z,2.27
2023-11-15T16:56:45.847Z,3.03
2023-11-15T16:59:14.693Z,2.90
2023-11-15T17:01:43.054Z,3.30
2023-11-15T17:04:12.570Z,3.97
2023-11-15T17:06:41.489Z,2.80
2023-11-15T17:09:09.488Z,2.30
2023-11-15T17:11:37.579Z,1.80
2023-11-15T17:14:06.601Z,2.17
2023-11-15T17:16:34.919Z,1.60
2023-11-15T17:19:03.836Z,2.30
2023-11-15T17:21:33.263Z,2.30
2023-11-15T17:24:02.485Z,1.73
2023-11-15T17:26:32.216Z,1.90
2023-11-15T17:29:00.569Z,2.07
2023-11-15T17:31:29.543Z,1.90
2023-11-15T17:33:58.093Z,1.80
2023-11-15T17:36:29.076Z,1.43
2023-11-15T17:38:59.815Z,2.87
2023-11-15T17:41:28.051Z,2.37
2023-11-15T17:43:56.015Z,3.10
2023-11-15T17:46:26.565Z,3.20
2023-11-15T17:48:56.488Z,2.90
2023-11-15T17:51:24.460Z,2.50
2023-11-15T17:53:54.282Z,3.17
2023-11-15T17:56:24.642Z,2.73
2023-11-15T17:58:52.998Z,3.07
2023-11-15T18:01:21.764Z,2.90
2023-11-15T18:03:50.058Z,3.70
2023-11-15T18:06:23.655Z,4.20
2023-11-15T18:08:53.028Z,3.33
2023-11-15T18:11:21.147Z,4.00
2023-11-15T18:13:50.782Z,3.30
2023-11-15T18:16:19.006Z,3.33
2023-11-15T18:18:47.530Z,2.93
2023-11-15T18:21:15.595Z,3.30
2023-11-15T18:23:44.829Z,2.77
2023-11-15T18:26:12.804Z,2.90
2023-11-15T18:28:41.764Z,4.10
2023-11-15T18:31:11.764Z,4.20
2023-11-15T18:33:40.322Z,2.83
2023-11-15T18:36:11.174Z,3.43
2023-11-15T18:38:40.461Z,3.00
2023-11-15T18:41:08.893Z,3.23
2023-11-15T18:43:37.790Z,3.03
2023-11-15T18:46:06.581Z,3.00
2023-11-15T18:48:35.962Z,3.00
2023-11-15T18:51:04.126Z,3.70
2023-11-15T18:53:32.434Z,4.20
2023-11-15T18:56:01.218Z,2.90
2023-11-15T18:58:29.519Z,2.83
2023-11-15T19:00:57.857Z,3.17
2023-11-15T19:03:26.881Z,3.97
2023-11-15T19:05:57.061Z,2.23
2023-11-15T19:08:25.598Z,2.80
2023-11-15T19:10:55.483Z,3.30
2023-11-15T19:13:26.009Z,3.33
2023-11-15T19:15:54.265Z,2.63
2023-11-15T19:18:22.562Z,3.10
2023-11-15T19:20:50.750Z,2.90
2023-11-15T19:23:21.725Z,2.50
2023-11-15T19:25:49.859Z,4.37
2023-11-15T19:28:17.863Z,2.90
2023-11-15T19:30:46.377Z,3.40
2023-11-15T19:33:14.652Z,3.20
2023-11-15T19:35:42.642Z,3.93
2023-11-15T19:38:10.808Z,3.27
2023-11-15T19:40:40.245Z,2.90
2023-11-15T19:43:10.531Z,3.27
2023-11-15T19:45:39.097Z,3.63
2023-11-15T19:48:07.398Z,2.93
2023-11-15T19:50:35.652Z,3.10
2023-11-15T19:53:08.051Z,3.97
2023-11-15T19:55:36.976Z,4.40
2023-11-15T19:58:06.752Z,4.30
2023-11-15T20:00:36.438Z,4.07
2023-11-15T20:03:06.051Z,3.30
2023-11-15T20:05:34.800Z,3.63
2023-11-15T20:08:02.806Z,3.57
2023-11-15T20:10:31.209Z,4.33
2023-11-15T20:12:59.365Z,3.83
2023-11-15T20:15:28.675Z,4.27
2023-11-15T20:17:56.881Z,3.43
2023-11-15T20:20:25.253Z,3.10
2023-11-15T20:22:55.094Z,3.23
2023-11-15T20:25:23.868Z,2.53
2023-11-15T20:27:51.807Z,3.57
2023-11-15T20:30:21.967Z,2.20
2023-11-15T20:32:55.468Z,3.80
2023-11-15T20:35:24.738Z,2.27
2023-11-15T20:37:52.723Z,2.70
2023-11-15T20:40:22.943Z,3.40
2023-11-15T20:42:51.328Z,2.80
2023-11-15T20:45:19.420Z,1.73
2023-11-15T20:47:47.527Z,1.70
2023-11-15T20:50:17.111Z,2.67
2023-11-15T20:52:45.071Z,2.10
2023-11-15T20:55:13.870Z,2.37
2023-11-15T20:57:41.905Z,2.20
2023-11-15T21:00:13.246Z,2.23
2023-11-15T21:02:42.013Z,2.20
2023-11-15T21:05:12.343Z,2.10
2023-11-15T21:07:42.149Z,2.13
2023-11-15T21:10:10.969Z,2.10
2023-11-15T21:12:39.689Z,2.20
2023-11-15T21:15:10.607Z,2.70
2023-11-15T21:17:38.976Z,1.77
2023-11-15T21:20:11.662Z,2.10
2023-11-15T21:22:43.074Z,1.97
2023-11-15T21:25:13.628Z,2.17
2023-11-15T21:27:42.805Z,2.03
2023-11-15T21:30:12.989Z,2.47
2023-11-15T21:32:41.666Z,2.47
2023-11-15T21:35:11.028Z,2.93
2023-11-15T21:37:44.166Z,2.40
2023-11-15T21:40:15.765Z,2.60
2023-11-15T21:42:45.796Z,2.47
2023-11-15T21:45:14.677Z,2.20
2023-11-15T21:47:44.427Z,2.90
2023-11-15T21:50:15.900Z,2.07
2023-11-15T21:52:45.480Z,2.30
2023-11-15T21:55:13.791Z,2.47
2023-11-15T21:57:42.021Z,2.20
2023-11-15T22:00:14.093Z,2.63
2023-11-15T22:02:42.236Z,1.97
2023-11-15T22:05:10.586Z,3.10
2023-11-15T22:07:39.732Z,3.13
2023-11-15T22:10:11.164Z,2.10
2023-11-15T22:12:39.353Z,2.00
2023-11-15T22:15:10.198Z,2.73
2023-11-15T22:17:39.921Z,2.50
2023-11-15T22:20:10.952Z,2.50
2023-11-15T22:22:39.112Z,2.43
2023-11-15T22:25:08.797Z,2.57
2023-11-15T22:27:37.108Z,2.90
2023-11-15T22:30:07.728Z,2.40
2023-11-15T22:32:35.995Z,2.67
2023-11-15T22:35:04.561Z,2.50
2023-11-15T22:37:33.862Z,2.90
2023-11-15T22:40:02.094Z,2.67
2023-11-15T22:42:31.453Z,3.97
2023-11-15T22:44:59.592Z,2.67
2023-11-15T22:47:27.715Z,3.00
2023-11-15T22:49:55.657Z,2.60
2023-11-15T22:52:23.758Z,3.27
2023-11-15T22:54:51.809Z,3.73
2023-11-15T22:57:21.731Z,3.53
2023-11-15T22:59:52.664Z,3.10
2023-11-15T23:02:21.696Z,3.33
2023-11-15T23:04:50.322Z,3.03
2023-11-15T23:07:21.822Z,3.37
2023-11-15T23:09:50.988Z,3.40
2023-11-15T23:12:19.146Z,3.73
2023-11-15T23:14:49.054Z,3.60
2023-11-15T23:17:18.594Z,3.63
2023-11-15T23:19:46.944Z,3.93
2023-11-15T23:22:15.593Z,3.20
2023-11-15T23:24:43.858Z,2.60
2023-11-15T23:27:12.070Z,3.00
2023-11-15T23:29:40.130Z,2.50
2023-11-15T23:32:08.687Z,3.03
2023-11-15T23:34:38.222Z,4.10
2023-11-15T23:37:06.501Z,3.10
2023-11-15T23:39:34.576Z,3.10
2023-11-15T23:42:02.705Z,2.90
2023-11-15T23:44:31.614Z,3.60
2023-11-15T23:47:00.172Z,2.93
2023-11-15T23:49:28.355Z,3.67
2023-11-15T23:51:57.617Z,2.60
2023-11-15T23:54:25.630Z,2.80
2023-11-15T23:56:56.323Z,1.97
2023-11-15T23:59:24.280Z,2.60
